sensor_id;sensor_type;location;lat;lon;timestamp;temperature;humidity
10089;DHT22;51898;49.864;8.550;2022-11-15T00:02:02;11.00;99.90
10089;DHT22;51898;49.864;8.550;2022-11-15T00:05:06;10.90;99.90
10089;DHT22;51898;49.864;8.550;2022-11-15T00:08:08;10.90;99.90
10089;DHT22;51898;49.864;8.550;2022-11-15T00:11:13;10.90;99.90
10089;DHT22;51898;49.864;8.550;2022-11-15T00:14:15;10.90;99.90
10089;DHT22;51898;49.864;8.550;2022-11-15T00:17:17;11.00;99.90
10089;DHT22;51898;49.864;8.550;2022-11-15T00:20:19;11.00;99.90
10089;DHT22;51898;49.864;8.550;2022-11-15T00:23:20;11.00;99.90
10089;DHT22;51898;49.864;8.550;2022-11-15T00:26:22;11.00;99.90
10089;DHT22;51898;49.864;8.550;2022-11-15T00:29:27;11.00;99.90
10089;DHT22;51898;49.864;8.550;2022-11-15T00:32:35;11.00;99.90
10089;DHT22;51898;49.864;8.550;2022-11-15T00:35:37;11.00;99.90
10089;DHT22;51898;49.864;8.550;2022-11-15T00:38:39;10.90;99.90
10089;DHT22;51898;49.864;8.550;2022-11-15T00:41:44;10.90;99.90
10089;DHT22;51898;49.864;8.550;2022-11-15T00:44:48;10.90;99.90
10089;DHT22;51898;49.864;8.550;2022-11-15T00:47:50;10.90;99.90
10089;DHT22;51898;49.864;8.550;2022-11-15T00:50:52;10.90;99.90
10089;DHT22;51898;49.864;8.550;2022-11-15T00:53:54;10.80;99.90
10089;DHT22;51898;49.864;8.550;2022-11-15T00:57:02;10.90;99.90
10089;DHT22;51898;49.864;8.550;2022-11-15T01:00:04;10.90;99.90
10089;DHT22;51898;49.864;8.550;2022-11-15T01:03:15;10.90;99.90
10089;DHT22;51898;49.864;8.550;2022-11-15T01:06:21;11.00;99.90
10089;DHT22;51898;49.864;8.550;2022-11-15T01:09:23;11.00;99.90
10089;DHT22;51898;49.864;8.550;2022-11-15T01:12:25;11.00;99.90
10089;DHT22;51898;49.864;8.550;2022-11-15T01:15:27;11.00;99.90
10089;DHT22;51898;49.864;8.550;2022-11-15T01:18:29;11.00;99.90
10089;DHT22;51898;49.864;8.550;2022-11-15T01:21:30;11.00;99.90
10089;DHT22;51898;49.864;8.550;2022-11-15T01:24:32;11.10;99.90
10089;DHT22;51898;49.864;8.550;2022-11-15T01:27:34;11.00;99.90
10089;DHT22;51898;49.864;8.550;2022-11-15T01:30:36;11.00;99.90
10089;DHT22;51898;49.864;8.550;2022-11-15T01:33:41;11.00;99.90
10089;DHT22;51898;49.864;8.550;2022-11-15T01:36:44;11.00;99.90
10089;DHT22;51898;49.864;8.550;2022-11-15T01:39:46;11.10;99.90
10089;DHT22;51898;49.864;8.550;2022-11-15T01:42:54;11.10;99.90
10089;DHT22;51898;49.864;8.550;2022-11-15T01:46:33;11.10;99.90
10089;DHT22;51898;49.864;8.550;2022-11-15T01:49:30;11.20;99.90
10089;DHT22;51898;49.864;8.550;2022-11-15T01:52:47;11.20;99.90
10089;DHT22;51898;49.864;8.550;2022-11-15T01:55:49;11.20;99.90
10089;DHT22;51898;49.864;8.550;2022-11-15T01:58:52;11.20;99.90
10089;DHT22;51898;49.864;8.550;2022-11-15T02:01:54;11.20;99.90
10089;DHT22;51898;49.864;8.550;2022-11-15T02:04:56;11.20;99.90
10089;DHT22;51898;49.864;8.550;2022-11-15T02:07:59;11.20;99.90
10089;DHT22;51898;49.864;8.550;2022-11-15T02:11:07;11.20;99.90
10089;DHT22;51898;49.864;8.550;2022-11-15T02:14:10;11.20;99.90
10089;DHT22;51898;49.864;8.550;2022-11-15T02:31:28;10.70;99.90
10089;DHT22;51898;49.864;8.550;2022-11-15T02:34:50;10.60;99.90
10089;DHT22;51898;49.864;8.550;2022-11-15T02:41:21;10.40;99.90
10089;DHT22;51898;49.864;8.550;2022-11-15T02:44:41;10.30;99.90
10089;DHT22;51898;49.864;8.550;2022-11-15T02:47:46;10.20;99.90
10089;DHT22;51898;49.864;8.550;2022-11-15T02:50:49;10.10;99.90
10089;DHT22;51898;49.864;8.550;2022-11-15T02:53:51;10.10;99.90
10089;DHT22;51898;49.864;8.550;2022-11-15T02:56:55;10.10;99.90
10089;DHT22;51898;49.864;8.550;2022-11-15T03:00:15;10.00;99.90
10089;DHT22;51898;49.864;8.550;2022-11-15T03:03:35;10.10;99.90
10089;DHT22;51898;49.864;8.550;2022-11-15T03:10:09;9.90;99.90
10089;DHT22;51898;49.864;8.550;2022-11-15T03:13:37;9.80;99.90
10089;DHT22;51898;49.864;8.550;2022-11-15T03:17:19;9.60;99.90
10089;DHT22;51898;49.864;8.550;2022-11-15T03:20:24;9.50;99.90
10089;DHT22;51898;49.864;8.550;2022-11-15T03:23:28;9.60;99.90
10089;DHT22;51898;49.864;8.550;2022-11-15T03:26:33;9.60;99.90
10089;DHT22;51898;49.864;8.550;2022-11-15T03:29:39;9.70;99.90
10089;DHT22;51898;49.864;8.550;2022-11-15T03:32:54;9.70;99.90
10089;DHT22;51898;49.864;8.550;2022-11-15T03:35:57;9.70;99.90
10089;DHT22;51898;49.864;8.550;2022-11-15T03:39:02;9.80;99.90
10089;DHT22;51898;49.864;8.550;2022-11-15T03:42:21;9.90;99.90
10089;DHT22;51898;49.864;8.550;2022-11-15T03:45:31;9.90;99.90
10089;DHT22;51898;49.864;8.550;2022-11-15T03:48:37;10.00;99.90
10089;DHT22;51898;49.864;8.550;2022-11-15T03:51:41;10.10;99.90
10089;DHT22;51898;49.864;8.550;2022-11-15T03:54:54;10.10;99.90
10089;DHT22;51898;49.864;8.550;2022-11-15T03:57:59;10.10;99.90
10089;DHT22;51898;49.864;8.550;2022-11-15T04:01:01;10.10;99.90
10089;DHT22;51898;49.864;8.550;2022-11-15T04:04:03;10.10;99.90
10089;DHT22;51898;49.864;8.550;2022-11-15T04:07:05;10.10;99.90
10089;DHT22;51898;49.864;8.550;2022-11-15T04:10:08;10.20;99.90
10089;DHT22;51898;49.864;8.550;2022-11-15T04:13:10;10.20;99.90
10089;DHT22;51898;49.864;8.550;2022-11-15T04:16:11;10.20;99.90
10089;DHT22;51898;49.864;8.550;2022-11-15T04:19:13;10.20;99.90
10089;DHT22;51898;49.864;8.550;2022-11-15T04:22:54;10.30;99.90
10089;DHT22;51898;49.864;8.550;2022-11-15T04:26:20;10.20;99.90
10089;DHT22;51898;49.864;8.550;2022-11-15T04:29:23;10.30;99.90
10089;DHT22;51898;49.864;8.550;2022-11-15T04:32:37;10.30;99.90
10089;DHT22;51898;49.864;8.550;2022-11-15T04:35:38;10.20;99.90
10089;DHT22;51898;49.864;8.550;2022-11-15T04:38:40;10.20;99.90
10089;DHT22;51898;49.864;8.550;2022-11-15T04:41:42;10.20;99.90
10089;DHT22;51898;49.864;8.550;2022-11-15T04:44:44;10.20;99.90
10089;DHT22;51898;49.864;8.550;2022-11-15T04:47:46;10.20;99.90
10089;DHT22;51898;49.864;8.550;2022-11-15T04:50:48;10.30;99.90
10089;DHT22;51898;49.864;8.550;2022-11-15T04:53:50;10.30;99.90
10089;DHT22;51898;49.864;8.550;2022-11-15T04:56:52;10.30;99.90
10089;DHT22;51898;49.864;8.550;2022-11-15T04:59:54;10.30;99.90
10089;DHT22;51898;49.864;8.550;2022-11-15T05:02:57;10.30;99.90
10089;DHT22;51898;49.864;8.550;2022-11-15T05:06:17;10.30;99.90
10089;DHT22;51898;49.864;8.550;2022-11-15T05:09:20;10.30;99.90
10089;DHT22;51898;49.864;8.550;2022-11-15T05:12:22;10.30;99.90
10089;DHT22;51898;49.864;8.550;2022-11-15T05:15:23;10.30;99.90
10089;DHT22;51898;49.864;8.550;2022-11-15T05:18:25;10.30;99.90
10089;DHT22;51898;49.864;8.550;2022-11-15T05:21:27;10.40;99.90
10089;DHT22;51898;49.864;8.550;2022-11-15T05:24:29;10.30;99.90
10089;DHT22;51898;49.864;8.550;2022-11-15T05:27:31;10.20;99.90
10089;DHT22;51898;49.864;8.550;2022-11-15T05:30:32;10.10;99.90
10089;DHT22;51898;49.864;8.550;2022-11-15T05:33:39;10.20;99.90
10089;DHT22;51898;49.864;8.550;2022-11-15T05:36:42;10.10;99.90
10089;DHT22;51898;49.864;8.550;2022-11-15T05:39:44;10.10;99.90
10089;DHT22;51898;49.864;8.550;2022-11-15T05:42:47;10.20;99.90
10089;DHT22;51898;49.864;8.550;2022-11-15T05:45:52;10.20;99.90
10089;DHT22;51898;49.864;8.550;2022-11-15T05:48:55;10.20;99.90
10089;DHT22;51898;49.864;8.550;2022-11-15T05:51:58;10.30;99.90
10089;DHT22;51898;49.864;8.550;2022-11-15T05:55:00;10.30;99.90
10089;DHT22;51898;49.864;8.550;2022-11-15T05:58:03;10.40;99.90
10089;DHT22;51898;49.864;8.550;2022-11-15T06:01:04;10.40;99.90
10089;DHT22;51898;49.864;8.550;2022-11-15T06:04:06;10.50;99.90
10089;DHT22;51898;49.864;8.550;2022-11-15T06:07:08;10.40;99.90
10089;DHT22;51898;49.864;8.550;2022-11-15T06:10:10;10.40;99.90
10089;DHT22;51898;49.864;8.550;2022-11-15T06:13:12;10.40;99.90
10089;DHT22;51898;49.864;8.550;2022-11-15T06:16:14;10.40;99.90
10089;DHT22;51898;49.864;8.550;2022-11-15T06:19:15;10.40;99.90
10089;DHT22;51898;49.864;8.550;2022-11-15T06:22:18;10.40;99.90
10089;DHT22;51898;49.864;8.550;2022-11-15T06:25:19;10.40;99.90
10089;DHT22;51898;49.864;8.550;2022-11-15T06:28:21;10.40;99.90
10089;DHT22;51898;49.864;8.550;2022-11-15T06:31:23;10.40;99.90
10089;DHT22;51898;49.864;8.550;2022-11-15T06:34:25;10.50;99.90
10089;DHT22;51898;49.864;8.550;2022-11-15T06:37:26;10.50;99.90
10089;DHT22;51898;49.864;8.550;2022-11-15T06:40:30;10.50;99.90
10089;DHT22;51898;49.864;8.550;2022-11-15T06:43:34;10.50;99.90
10089;DHT22;51898;49.864;8.550;2022-11-15T06:46:36;10.40;99.90
10089;DHT22;51898;49.864;8.550;2022-11-15T06:49:38;10.40;99.90
10089;DHT22;51898;49.864;8.550;2022-11-15T06:52:39;10.40;99.90
10089;DHT22;51898;49.864;8.550;2022-11-15T06:55:41;10.40;99.90
10089;DHT22;51898;49.864;8.550;2022-11-15T06:58:43;10.40;99.90
10089;DHT22;51898;49.864;8.550;2022-11-15T07:01:44;10.40;99.90
10089;DHT22;51898;49.864;8.550;2022-11-15T07:04:46;10.40;99.90
10089;DHT22;51898;49.864;8.550;2022-11-15T07:07:54;10.50;99.90
10089;DHT22;51898;49.864;8.550;2022-11-15T07:11:04;10.50;99.90
10089;DHT22;51898;49.864;8.550;2022-11-15T07:14:06;10.50;99.90
10089;DHT22;51898;49.864;8.550;2022-11-15T07:17:08;10.50;99.90
10089;DHT22;51898;49.864;8.550;2022-11-15T07:20:10;10.50;99.90
10089;DHT22;51898;49.864;8.550;2022-11-15T07:23:12;10.70;99.90
10089;DHT22;51898;49.864;8.550;2022-11-15T07:26:14;10.70;99.90
10089;DHT22;51898;49.864;8.550;2022-11-15T07:29:16;10.80;99.90
10089;DHT22;51898;49.864;8.550;2022-11-15T07:32:18;10.80;99.90
10089;DHT22;51898;49.864;8.550;2022-11-15T07:35:22;10.90;99.90
10089;DHT22;51898;49.864;8.550;2022-11-15T07:38:24;10.90;99.90
10089;DHT22;51898;49.864;8.550;2022-11-15T07:41:29;11.00;99.90
10089;DHT22;51898;49.864;8.550;2022-11-15T07:44:31;11.00;99.90
10089;DHT22;51898;49.864;8.550;2022-11-15T07:47:33;11.10;99.90
10089;DHT22;51898;49.864;8.550;2022-11-15T07:50:35;11.10;99.90
10089;DHT22;51898;49.864;8.550;2022-11-15T07:53:40;11.20;99.90
10089;DHT22;51898;49.864;8.550;2022-11-15T07:56:42;11.20;99.90
10089;DHT22;51898;49.864;8.550;2022-11-15T07:59:43;11.40;99.90
10089;DHT22;51898;49.864;8.550;2022-11-15T08:02:45;11.40;99.90
10089;DHT22;51898;49.864;8.550;2022-11-15T08:05:50;11.40;99.90
10089;DHT22;51898;49.864;8.550;2022-11-15T08:08:52;11.50;99.90
10089;DHT22;51898;49.864;8.550;2022-11-15T08:12:23;11.50;99.90
10089;DHT22;51898;49.864;8.550;2022-11-15T08:15:27;11.50;99.90
10089;DHT22;51898;49.864;8.550;2022-11-15T08:18:29;11.60;99.90
10089;DHT22;51898;49.864;8.550;2022-11-15T08:21:31;11.60;99.90
10089;DHT22;51898;49.864;8.550;2022-11-15T08:24:35;11.70;99.90
10089;DHT22;51898;49.864;8.550;2022-11-15T08:27:37;11.80;99.90
10089;DHT22;51898;49.864;8.550;2022-11-15T08:30:41;11.80;99.90
10089;DHT22;51898;49.864;8.550;2022-11-15T08:33:44;11.80;99.90
10089;DHT22;51898;49.864;8.550;2022-11-15T08:36:46;11.70;99.90
10089;DHT22;51898;49.864;8.550;2022-11-15T08:39:47;11.70;99.90
10089;DHT22;51898;49.864;8.550;2022-11-15T08:42:49;11.70;99.90
10089;DHT22;51898;49.864;8.550;2022-11-15T08:45:55;11.60;99.90
10089;DHT22;51898;49.864;8.550;2022-11-15T08:48:57;11.70;99.90
10089;DHT22;51898;49.864;8.550;2022-11-15T08:51:59;11.70;99.90
10089;DHT22;51898;49.864;8.550;2022-11-15T08:55:01;11.80;99.90
10089;DHT22;51898;49.864;8.550;2022-11-15T08:58:03;11.80;99.90
10089;DHT22;51898;49.864;8.550;2022-11-15T09:01:05;11.90;99.90
10089;DHT22;51898;49.864;8.550;2022-11-15T09:04:07;12.10;99.90
10089;DHT22;51898;49.864;8.550;2022-11-15T09:07:10;12.10;99.90
10089;DHT22;51898;49.864;8.550;2022-11-15T09:10:23;12.20;99.90
10089;DHT22;51898;49.864;8.550;2022-11-15T09:13:26;12.30;99.90
10089;DHT22;51898;49.864;8.550;2022-11-15T09:16:31;12.40;99.90
10089;DHT22;51898;49.864;8.550;2022-11-15T09:19:36;12.50;99.90
10089;DHT22;51898;49.864;8.550;2022-11-15T09:22:38;12.50;99.90
10089;DHT22;51898;49.864;8.550;2022-11-15T09:25:40;12.50;99.90
10089;DHT22;51898;49.864;8.550;2022-11-15T09:28:42;12.50;99.90
10089;DHT22;51898;49.864;8.550;2022-11-15T09:31:44;12.60;99.90
10089;DHT22;51898;49.864;8.550;2022-11-15T09:34:46;12.60;99.90
10089;DHT22;51898;49.864;8.550;2022-11-15T09:37:48;12.60;99.90
10089;DHT22;51898;49.864;8.550;2022-11-15T09:44:38;12.70;99.90
10089;DHT22;51898;49.864;8.550;2022-11-15T09:50:54;12.80;99.90
10089;DHT22;51898;49.864;8.550;2022-11-15T09:54:30;12.90;99.90
10089;DHT22;51898;49.864;8.550;2022-11-15T09:58:00;13.00;99.90
10089;DHT22;51898;49.864;8.550;2022-11-15T10:01:19;13.00;99.90
10089;DHT22;51898;49.864;8.550;2022-11-15T10:04:26;13.00;99.90
10089;DHT22;51898;49.864;8.550;2022-11-15T10:07:37;12.90;99.90
10089;DHT22;51898;49.864;8.550;2022-11-15T10:10:47;13.00;99.90
10089;DHT22;51898;49.864;8.550;2022-11-15T10:14:17;13.10;99.90
10089;DHT22;51898;49.864;8.550;2022-11-15T10:21:00;13.10;99.90
10089;DHT22;51898;49.864;8.550;2022-11-15T10:24:10;13.00;99.90
10089;DHT22;51898;49.864;8.550;2022-11-15T10:27:17;13.00;99.90
10089;DHT22;51898;49.864;8.550;2022-11-15T10:30:19;13.00;99.90
10089;DHT22;51898;49.864;8.550;2022-11-15T10:33:37;13.10;99.90
10089;DHT22;51898;49.864;8.550;2022-11-15T10:36:43;13.20;99.90
10089;DHT22;51898;49.864;8.550;2022-11-15T10:40:18;13.20;99.90
10089;DHT22;51898;49.864;8.550;2022-11-15T10:43:20;13.30;99.90
10089;DHT22;51898;49.864;8.550;2022-11-15T10:46:23;13.30;99.90
10089;DHT22;51898;49.864;8.550;2022-11-15T10:49:54;13.20;99.90
10089;DHT22;51898;49.864;8.550;2022-11-15T10:52:58;13.10;99.90
10089;DHT22;51898;49.864;8.550;2022-11-15T10:56:06;13.10;99.90
10089;DHT22;51898;49.864;8.550;2022-11-15T10:59:17;13.10;99.90
10089;DHT22;51898;49.864;8.550;2022-11-15T11:02:38;13.10;99.90
10089;DHT22;51898;49.864;8.550;2022-11-15T11:05:41;13.20;99.90
10089;DHT22;51898;49.864;8.550;2022-11-15T11:08:59;13.30;99.90
10089;DHT22;51898;49.864;8.550;2022-11-15T11:12:02;13.40;99.90
10089;DHT22;51898;49.864;8.550;2022-11-15T11:15:14;13.50;99.90
10089;DHT22;51898;49.864;8.550;2022-11-15T11:18:27;13.60;99.90
10089;DHT22;51898;49.864;8.550;2022-11-15T11:25:14;13.80;99.90
10089;DHT22;51898;49.864;8.550;2022-11-15T11:28:39;13.80;99.90
10089;DHT22;51898;49.864;8.550;2022-11-15T11:35:03;13.90;99.90
10089;DHT22;51898;49.864;8.550;2022-11-15T11:38:32;13.90;99.90
10089;DHT22;51898;49.864;8.550;2022-11-15T11:42:11;14.00;99.90
10089;DHT22;51898;49.864;8.550;2022-11-15T11:45:21;14.00;99.90
10089;DHT22;51898;49.864;8.550;2022-11-15T11:48:45;14.10;99.90
10089;DHT22;51898;49.864;8.550;2022-11-15T11:51:56;14.10;99.90
10089;DHT22;51898;49.864;8.550;2022-11-15T11:58:34;14.20;99.90
10089;DHT22;51898;49.864;8.550;2022-11-15T12:01:43;14.30;99.90
10089;DHT22;51898;49.864;8.550;2022-11-15T12:04:50;14.40;99.90
10089;DHT22;51898;49.864;8.550;2022-11-15T12:07:56;14.40;99.90
10089;DHT22;51898;49.864;8.550;2022-11-15T12:11:28;14.60;99.90
10089;DHT22;51898;49.864;8.550;2022-11-15T12:14:32;14.60;99.90
10089;DHT22;51898;49.864;8.550;2022-11-15T12:17:34;14.70;99.90
10089;DHT22;51898;49.864;8.550;2022-11-15T12:20:41;14.90;99.90
10089;DHT22;51898;49.864;8.550;2022-11-15T12:23:54;15.00;99.90
10089;DHT22;51898;49.864;8.550;2022-11-15T12:27:17;14.90;99.90
10089;DHT22;51898;49.864;8.550;2022-11-15T12:30:43;14.80;99.90
10089;DHT22;51898;49.864;8.550;2022-11-15T12:33:49;14.70;99.90
10089;DHT22;51898;49.864;8.550;2022-11-15T12:36:51;14.70;99.90
10089;DHT22;51898;49.864;8.550;2022-11-15T12:40:25;14.60;99.90
10089;DHT22;51898;49.864;8.550;2022-11-15T12:43:41;14.50;99.90
10089;DHT22;51898;49.864;8.550;2022-11-15T12:49:48;14.20;99.90
10089;DHT22;51898;49.864;8.550;2022-11-15T12:56:26;14.20;99.90
10089;DHT22;51898;49.864;8.550;2022-11-15T13:03:21;14.30;99.90
10089;DHT22;51898;49.864;8.550;2022-11-15T13:06:46;14.40;99.90
10089;DHT22;51898;49.864;8.550;2022-11-15T13:09:52;14.30;99.90
10089;DHT22;51898;49.864;8.550;2022-11-15T13:13:00;14.30;99.90
10089;DHT22;51898;49.864;8.550;2022-11-15T13:16:02;14.20;99.90
10089;DHT22;51898;49.864;8.550;2022-11-15T13:19:09;14.20;99.90
10089;DHT22;51898;49.864;8.550;2022-11-15T13:22:11;14.20;99.90
10089;DHT22;51898;49.864;8.550;2022-11-15T13:25:55;14.20;99.90
10089;DHT22;51898;49.864;8.550;2022-11-15T13:28:59;14.10;99.90
10089;DHT22;51898;49.864;8.550;2022-11-15T13:32:02;14.10;99.90
10089;DHT22;51898;49.864;8.550;2022-11-15T13:35:06;14.10;99.90
10089;DHT22;51898;49.864;8.550;2022-11-15T13:38:19;14.10;99.90
10089;DHT22;51898;49.864;8.550;2022-11-15T13:41:32;14.10;99.90
10089;DHT22;51898;49.864;8.550;2022-11-15T13:44:34;14.10;99.90
10089;DHT22;51898;49.864;8.550;2022-11-15T13:47:36;14.10;99.90
10089;DHT22;51898;49.864;8.550;2022-11-15T13:50:38;14.10;99.90
10089;DHT22;51898;49.864;8.550;2022-11-15T13:53:43;14.00;99.90
10089;DHT22;51898;49.864;8.550;2022-11-15T13:57:03;14.10;99.90
10089;DHT22;51898;49.864;8.550;2022-11-15T14:03:35;14.10;99.90
10089;DHT22;51898;49.864;8.550;2022-11-15T14:06:45;14.10;99.90
10089;DHT22;51898;49.864;8.550;2022-11-15T14:09:48;14.10;99.90
10089;DHT22;51898;49.864;8.550;2022-11-15T14:12:51;14.10;99.90
10089;DHT22;51898;49.864;8.550;2022-11-15T14:15:53;14.10;99.90
10089;DHT22;51898;49.864;8.550;2022-11-15T14:18:55;14.20;99.90
10089;DHT22;51898;49.864;8.550;2022-11-15T14:25:16;14.10;99.90
10089;DHT22;51898;49.864;8.550;2022-11-15T14:31:24;14.00;99.90
10089;DHT22;51898;49.864;8.550;2022-11-15T14:34:26;13.90;99.90
10089;DHT22;51898;49.864;8.550;2022-11-15T14:37:30;13.90;99.90
10089;DHT22;51898;49.864;8.550;2022-11-15T14:40:34;13.80;99.90
10089;DHT22;51898;49.864;8.550;2022-11-15T14:43:36;13.80;99.90
10089;DHT22;51898;49.864;8.550;2022-11-15T14:46:38;13.80;99.90
10089;DHT22;51898;49.864;8.550;2022-11-15T14:49:40;13.80;99.90
10089;DHT22;51898;49.864;8.550;2022-11-15T14:52:42;13.70;99.90
10089;DHT22;51898;49.864;8.550;2022-11-15T14:55:44;13.60;99.90
10089;DHT22;51898;49.864;8.550;2022-11-15T14:58:46;13.50;99.90
10089;DHT22;51898;49.864;8.550;2022-11-15T15:01:47;13.50;99.90
10089;DHT22;51898;49.864;8.550;2022-11-15T15:04:50;13.50;99.90
10089;DHT22;51898;49.864;8.550;2022-11-15T15:07:52;13.50;99.90
10089;DHT22;51898;49.864;8.550;2022-11-15T15:10:57;13.50;99.90
10089;DHT22;51898;49.864;8.550;2022-11-15T15:14:00;13.50;99.90
10089;DHT22;51898;49.864;8.550;2022-11-15T15:17:02;13.50;99.90
10089;DHT22;51898;49.864;8.550;2022-11-15T15:20:05;13.50;99.90
10089;DHT22;51898;49.864;8.550;2022-11-15T15:23:18;13.40;99.90
10089;DHT22;51898;49.864;8.550;2022-11-15T15:26:20;13.30;99.90
10089;DHT22;51898;49.864;8.550;2022-11-15T15:29:22;13.30;99.90
10089;DHT22;51898;49.864;8.550;2022-11-15T15:32:23;13.20;99.90
10089;DHT22;51898;49.864;8.550;2022-11-15T15:35:29;13.20;99.90
10089;DHT22;51898;49.864;8.550;2022-11-15T15:38:32;13.20;99.90
10089;DHT22;51898;49.864;8.550;2022-11-15T15:41:34;13.20;99.90
10089;DHT22;51898;49.864;8.550;2022-11-15T15:44:36;13.10;99.90
10089;DHT22;51898;49.864;8.550;2022-11-15T15:47:38;13.10;99.90
10089;DHT22;51898;49.864;8.550;2022-11-15T15:50:41;13.10;99.90
10089;DHT22;51898;49.864;8.550;2022-11-15T15:53:44;13.00;99.90
10089;DHT22;51898;49.864;8.550;2022-11-15T15:56:45;12.90;99.90
10089;DHT22;51898;49.864;8.550;2022-11-15T15:59:52;12.90;99.90
10089;DHT22;51898;49.864;8.550;2022-11-15T16:02:54;12.90;99.90
10089;DHT22;51898;49.864;8.550;2022-11-15T16:05:56;12.80;99.90
10089;DHT22;51898;49.864;8.550;2022-11-15T16:08:57;12.90;99.90
10089;DHT22;51898;49.864;8.550;2022-11-15T16:12:15;12.90;99.90
10089;DHT22;51898;49.864;8.550;2022-11-15T16:15:18;12.80;99.90
10089;DHT22;51898;49.864;8.550;2022-11-15T16:18:20;12.80;99.90
10089;DHT22;51898;49.864;8.550;2022-11-15T16:21:22;12.80;99.90
10089;DHT22;51898;49.864;8.550;2022-11-15T16:24:23;12.70;99.90
10089;DHT22;51898;49.864;8.550;2022-11-15T16:27:25;12.60;99.90
10089;DHT22;51898;49.864;8.550;2022-11-15T16:30:27;12.60;99.90
10089;DHT22;51898;49.864;8.550;2022-11-15T16:33:28;12.60;99.90
10089;DHT22;51898;49.864;8.550;2022-11-15T16:36:33;12.50;99.90
10089;DHT22;51898;49.864;8.550;2022-11-15T16:39:35;12.40;99.90
10089;DHT22;51898;49.864;8.550;2022-11-15T16:42:37;12.30;99.90
10089;DHT22;51898;49.864;8.550;2022-11-15T16:45:38;12.30;99.90
10089;DHT22;51898;49.864;8.550;2022-11-15T16:48:40;12.30;99.90
10089;DHT22;51898;49.864;8.550;2022-11-15T16:51:44;12.30;99.90
10089;DHT22;51898;49.864;8.550;2022-11-15T16:54:47;12.30;99.90
10089;DHT22;51898;49.864;8.550;2022-11-15T16:57:48;12.20;99.90
10089;DHT22;51898;49.864;8.550;2022-11-15T17:00:51;12.20;99.90
10089;DHT22;51898;49.864;8.550;2022-11-15T17:03:54;12.20;99.90
10089;DHT22;51898;49.864;8.550;2022-11-15T17:06:56;12.20;99.90
10089;DHT22;51898;49.864;8.550;2022-11-15T17:09:58;12.20;99.90
10089;DHT22;51898;49.864;8.550;2022-11-15T17:12:59;12.20;99.90
10089;DHT22;51898;49.864;8.550;2022-11-15T17:16:06;12.20;99.90
10089;DHT22;51898;49.864;8.550;2022-11-15T17:19:16;12.20;99.90
10089;DHT22;51898;49.864;8.550;2022-11-15T17:22:19;12.10;99.90
10089;DHT22;51898;49.864;8.550;2022-11-15T17:25:20;12.00;99.90
10089;DHT22;51898;49.864;8.550;2022-11-15T17:28:22;12.00;99.90
10089;DHT22;51898;49.864;8.550;2022-11-15T17:31:24;12.10;99.90
10089;DHT22;51898;49.864;8.550;2022-11-15T17:34:25;12.10;99.90
10089;DHT22;51898;49.864;8.550;2022-11-15T17:37:27;12.10;99.90
10089;DHT22;51898;49.864;8.550;2022-11-15T17:40:29;12.00;99.90
10089;DHT22;51898;49.864;8.550;2022-11-15T17:43:32;12.00;99.90
10089;DHT22;51898;49.864;8.550;2022-11-15T17:46:34;12.00;99.90
10089;DHT22;51898;49.864;8.550;2022-11-15T17:49:36;11.90;99.90
10089;DHT22;51898;49.864;8.550;2022-11-15T17:52:41;11.90;99.90
10089;DHT22;51898;49.864;8.550;2022-11-15T17:55:42;11.80;99.90
10089;DHT22;51898;49.864;8.550;2022-11-15T17:58:49;11.80;99.90
10089;DHT22;51898;49.864;8.550;2022-11-15T18:01:51;11.70;99.90
10089;DHT22;51898;49.864;8.550;2022-11-15T18:04:54;11.70;99.90
10089;DHT22;51898;49.864;8.550;2022-11-15T18:07:56;11.60;99.90
10089;DHT22;51898;49.864;8.550;2022-11-15T18:11:02;11.60;99.90
10089;DHT22;51898;49.864;8.550;2022-11-15T18:14:13;11.60;99.90
10089;DHT22;51898;49.864;8.550;2022-11-15T18:17:15;11.60;99.90
10089;DHT22;51898;49.864;8.550;2022-11-15T18:20:19;11.60;99.90
10089;DHT22;51898;49.864;8.550;2022-11-15T18:23:24;11.70;99.90
10089;DHT22;51898;49.864;8.550;2022-11-15T18:26:28;11.60;99.90
10089;DHT22;51898;49.864;8.550;2022-11-15T18:29:30;11.70;99.90
10089;DHT22;51898;49.864;8.550;2022-11-15T18:32:34;11.70;99.90
10089;DHT22;51898;49.864;8.550;2022-11-15T18:35:35;11.70;99.90
10089;DHT22;51898;49.864;8.550;2022-11-15T18:38:37;11.70;99.90
10089;DHT22;51898;49.864;8.550;2022-11-15T18:41:39;11.70;99.90
10089;DHT22;51898;49.864;8.550;2022-11-15T18:44:40;11.70;99.90
10089;DHT22;51898;49.864;8.550;2022-11-15T18:47:42;11.70;99.90
10089;DHT22;51898;49.864;8.550;2022-11-15T18:50:44;11.80;99.90
10089;DHT22;51898;49.864;8.550;2022-11-15T18:53:46;11.70;99.90
10089;DHT22;51898;49.864;8.550;2022-11-15T18:56:47;11.70;99.90
10089;DHT22;51898;49.864;8.550;2022-11-15T18:59:49;11.70;99.90
10089;DHT22;51898;49.864;8.550;2022-11-15T19:02:53;11.70;99.90
10089;DHT22;51898;49.864;8.550;2022-11-15T19:06:04;11.70;99.90
10089;DHT22;51898;49.864;8.550;2022-11-15T19:09:07;11.70;99.90
10089;DHT22;51898;49.864;8.550;2022-11-15T19:12:09;11.70;99.90
10089;DHT22;51898;49.864;8.550;2022-11-15T19:15:11;11.70;99.90
10089;DHT22;51898;49.864;8.550;2022-11-15T19:18:13;11.80;99.90
10089;DHT22;51898;49.864;8.550;2022-11-15T19:21:15;11.80;99.90
10089;DHT22;51898;49.864;8.550;2022-11-15T19:24:17;11.80;99.90
10089;DHT22;51898;49.864;8.550;2022-11-15T19:27:19;11.70;99.90
10089;DHT22;51898;49.864;8.550;2022-11-15T19:30:20;11.70;99.90
10089;DHT22;51898;49.864;8.550;2022-11-15T19:33:22;11.70;99.90
10089;DHT22;51898;49.864;8.550;2022-11-15T19:36:30;11.70;99.90
10089;DHT22;51898;49.864;8.550;2022-11-15T19:39:33;11.60;99.90
10089;DHT22;51898;49.864;8.550;2022-11-15T19:42:40;11.60;99.90
10089;DHT22;51898;49.864;8.550;2022-11-15T19:45:42;11.50;99.90
10089;DHT22;51898;49.864;8.550;2022-11-15T19:48:43;11.50;99.90
10089;DHT22;51898;49.864;8.550;2022-11-15T19:51:45;11.50;99.90
10089;DHT22;51898;49.864;8.550;2022-11-15T19:54:49;11.50;99.90
10089;DHT22;51898;49.864;8.550;2022-11-15T19:57:50;11.50;99.90
10089;DHT22;51898;49.864;8.550;2022-11-15T20:04:19;11.50;99.90
10089;DHT22;51898;49.864;8.550;2022-11-15T20:07:21;11.50;99.90
10089;DHT22;51898;49.864;8.550;2022-11-15T20:10:22;11.50;99.90
10089;DHT22;51898;49.864;8.550;2022-11-15T20:13:25;11.50;99.90
10089;DHT22;51898;49.864;8.550;2022-11-15T20:16:27;11.50;99.90
10089;DHT22;51898;49.864;8.550;2022-11-15T20:19:28;11.60;99.90
10089;DHT22;51898;49.864;8.550;2022-11-15T20:22:30;11.50;99.90
10089;DHT22;51898;49.864;8.550;2022-11-15T20:25:32;11.50;99.90
10089;DHT22;51898;49.864;8.550;2022-11-15T20:28:38;11.50;99.90
10089;DHT22;51898;49.864;8.550;2022-11-15T20:31:40;11.50;99.90
10089;DHT22;51898;49.864;8.550;2022-11-15T20:34:42;11.50;99.90
10089;DHT22;51898;49.864;8.550;2022-11-15T20:37:44;11.40;99.90
10089;DHT22;51898;49.864;8.550;2022-11-15T20:40:47;11.40;99.90